sensor_id;sensor_type;location;lat;lon;timestamp;P1;durP1;ratioP1;P2;durP2;ratioP2
7939;SDS011;4015;48.888;9.226;2024-03-25T00:01:21;5.70;;;3.67;;
7939;SDS011;4015;48.888;9.226;2024-03-25T00:03:46;4.57;;;2.60;;
7939;SDS011;4015;48.888;9.226;2024-03-25T00:06:11;3.37;;;2.53;;
7939;SDS011;4015;48.888;9.226;2024-03-25T00:08:36;5.17;;;2.60;;
7939;SDS011;4015;48.888;9.226;2024-03-25T00:11:02;8.67;;;3.00;;
7939;SDS011;4015;48.888;9.226;2024-03-25T00:13:27;5.77;;;3.00;;
7939;SDS011;4015;48.888;9.226;2024-03-25T00:15:53;6.47;;;2.63;;
7939;SDS011;4015;48.888;9.226;2024-03-25T00:18:18;4.83;;;2.77;;
7939;SDS011;4015;48.888;9.226;2024-03-25T00:20:43;2.87;;;2.30;;
7939;SDS011;4015;48.888;9.226;2024-03-25T00:23:09;2.97;;;2.33;;
7939;SDS011;4015;48.888;9.226;2024-03-25T00:25:34;8.73;;;4.00;;
7939;SDS011;4015;48.888;9.226;2024-03-25T00:27:59;4.93;;;2.70;;
7939;SDS011;4015;48.888;9.226;2024-03-25T00:30:25;4.97;;;3.40;;
7939;SDS011;4015;48.888;9.226;2024-03-25T00:32:50;8.30;;;3.00;;
7939;SDS011;4015;48.888;9.226;2024-03-25T00:35:15;3.33;;;2.80;;
7939;SDS011;4015;48.888;9.226;2024-03-25T00:37:41;3.97;;;2.40;;
7939;SDS011;4015;48.888;9.226;2024-03-25T00:40:06;4.13;;;3.20;;
7939;SDS011;4015;48.888;9.226;2024-03-25T00:42:33;5.20;;;2.90;;
7939;SDS011;4015;48.888;9.226;2024-03-25T00:44:58;7.60;;;2.90;;
7939;SDS011;4015;48.888;9.226;2024-03-25T00:47:23;5.67;;;2.97;;
7939;SDS011;4015;48.888;9.226;2024-03-25T00:49:49;4.13;;;2.67;;
7939;SDS011;4015;48.888;9.226;2024-03-25T00:52:14;6.00;;;2.40;;
7939;SDS011;4015;48.888;9.226;2024-03-25T00:54:40;4.93;;;2.70;;
7939;SDS011;4015;48.888;9.226;2024-03-25T00:57:05;5.20;;;2.40;;
7939;SDS011;4015;48.888;9.226;2024-03-25T00:59:30;4.37;;;3.03;;
7939;SDS011;4015;48.888;9.226;2024-03-25T01:01:55;3.67;;;2.53;;
7939;SDS011;4015;48.888;9.226;2024-03-25T01:04:22;4.83;;;2.83;;
7939;SDS011;4015;48.888;9.226;2024-03-25T01:06:48;7.07;;;2.80;;
7939;SDS011;4015;48.888;9.226;2024-03-25T01:09:13;6.70;;;2.83;;
7939;SDS011;4015;48.888;9.226;2024-03-25T01:11:39;4.53;;;2.63;;
7939;SDS011;4015;48.888;9.226;2024-03-25T01:14:04;4.67;;;3.20;;
7939;SDS011;4015;48.888;9.226;2024-03-25T01:16:29;4.37;;;2.80;;
7939;SDS011;4015;48.888;9.226;2024-03-25T01:18:55;7.40;;;2.77;;
7939;SDS011;4015;48.888;9.226;2024-03-25T01:21:20;4.07;;;2.60;;
7939;SDS011;4015;48.888;9.226;2024-03-25T01:23:45;7.17;;;2.90;;
7939;SDS011;4015;48.888;9.226;2024-03-25T01:26:11;5.37;;;2.90;;
7939;SDS011;4015;48.888;9.226;2024-03-25T01:28:36;3.73;;;2.63;;
7939;SDS011;4015;48.888;9.226;2024-03-25T01:31:01;6.57;;;3.30;;
7939;SDS011;4015;48.888;9.226;2024-03-25T01:33:26;4.73;;;2.27;;
7939;SDS011;4015;48.888;9.226;2024-03-25T01:35:52;3.97;;;2.80;;
7939;SDS011;4015;48.888;9.226;2024-03-25T01:38:19;3.43;;;2.43;;
7939;SDS011;4015;48.888;9.226;2024-03-25T01:40:45;3.67;;;2.70;;
7939;SDS011;4015;48.888;9.226;2024-03-25T01:43:10;4.77;;;2.40;;
7939;SDS011;4015;48.888;9.226;2024-03-25T01:45:35;6.10;;;2.33;;
7939;SDS011;4015;48.888;9.226;2024-03-25T01:48:07;3.87;;;2.40;;
7939;SDS011;4015;48.888;9.226;2024-03-25T01:50:39;4.03;;;2.50;;
7939;SDS011;4015;48.888;9.226;2024-03-25T01:53:07;4.50;;;2.70;;
7939;SDS011;4015;48.888;9.226;2024-03-25T01:55:34;4.20;;;2.60;;
7939;SDS011;4015;48.888;9.226;2024-03-25T01:58:01;4.93;;;2.63;;
7939;SDS011;4015;48.888;9.226;2024-03-25T02:00:27;5.57;;;2.30;;
7939;SDS011;4015;48.888;9.226;2024-03-25T02:02:53;5.43;;;3.07;;
7939;SDS011;4015;48.888;9.226;2024-03-25T02:05:19;3.10;;;2.60;;
7939;SDS011;4015;48.888;9.226;2024-03-25T02:07:45;4.77;;;2.60;;
7939;SDS011;4015;48.888;9.226;2024-03-25T02:10:12;3.83;;;2.70;;
7939;SDS011;4015;48.888;9.226;2024-03-25T02:12:40;3.73;;;2.60;;
7939;SDS011;4015;48.888;9.226;2024-03-25T02:15:07;5.23;;;2.67;;
7939;SDS011;4015;48.888;9.226;2024-03-25T02:17:33;6.77;;;2.50;;
7939;SDS011;4015;48.888;9.226;2024-03-25T02:19:59;6.93;;;2.93;;
7939;SDS011;4015;48.888;9.226;2024-03-25T02:22:25;4.67;;;2.60;;
7939;SDS011;4015;48.888;9.226;2024-03-25T02:24:50;5.47;;;2.90;;
7939;SDS011;4015;48.888;9.226;2024-03-25T02:27:18;5.73;;;2.60;;
7939;SDS011;4015;48.888;9.226;2024-03-25T02:29:43;5.00;;;2.77;;
7939;SDS011;4015;48.888;9.226;2024-03-25T02:32:09;3.63;;;2.40;;
7939;SDS011;4015;48.888;9.226;2024-03-25T02:34:38;6.73;;;2.50;;
7939;SDS011;4015;48.888;9.226;2024-03-25T02:37:06;8.20;;;3.07;;
7939;SDS011;4015;48.888;9.226;2024-03-25T02:39:32;9.20;;;3.80;;
7939;SDS011;4015;48.888;9.226;2024-03-25T02:41:58;6.43;;;3.00;;
7939;SDS011;4015;48.888;9.226;2024-03-25T02:44:24;3.03;;;2.73;;
7939;SDS011;4015;48.888;9.226;2024-03-25T02:46:50;4.40;;;3.40;;
7939;SDS011;4015;48.888;9.226;2024-03-25T02:49:17;5.37;;;2.80;;
7939;SDS011;4015;48.888;9.226;2024-03-25T02:51:42;3.73;;;2.97;;
7939;SDS011;4015;48.888;9.226;2024-03-25T02:54:07;5.13;;;2.83;;
7939;SDS011;4015;48.888;9.226;2024-03-25T02:56:34;5.30;;;3.07;;
7939;SDS011;4015;48.888;9.226;2024-03-25T02:59:00;6.97;;;2.80;;
7939;SDS011;4015;48.888;9.226;2024-03-25T03:01:25;8.47;;;2.97;;
7939;SDS011;4015;48.888;9.226;2024-03-25T03:03:51;5.27;;;2.70;;
7939;SDS011;4015;48.888;9.226;2024-03-25T03:06:16;5.50;;;3.10;;
7939;SDS011;4015;48.888;9.226;2024-03-25T03:08:41;5.07;;;3.10;;
7939;SDS011;4015;48.888;9.226;2024-03-25T03:11:07;5.17;;;2.97;;
7939;SDS011;4015;48.888;9.226;2024-03-25T03:13:32;7.03;;;3.43;;
7939;SDS011;4015;48.888;9.226;2024-03-25T03:15:57;6.37;;;3.30;;
7939;SDS011;4015;48.888;9.226;2024-03-25T03:18:22;4.87;;;2.97;;
7939;SDS011;4015;48.888;9.226;2024-03-25T03:20:48;4.90;;;2.93;;
7939;SDS011;4015;48.888;9.226;2024-03-25T03:23:14;4.27;;;2.93;;
7939;SDS011;4015;48.888;9.226;2024-03-25T03:25:40;5.77;;;3.13;;
7939;SDS011;4015;48.888;9.226;2024-03-25T03:28:05;6.03;;;3.23;;
7939;SDS011;4015;48.888;9.226;2024-03-25T03:30:31;5.93;;;2.77;;
7939;SDS011;4015;48.888;9.226;2024-03-25T03:32:56;6.33;;;3.50;;
7939;SDS011;4015;48.888;9.226;2024-03-25T03:35:21;6.53;;;4.43;;
7939;SDS011;4015;48.888;9.226;2024-03-25T03:37:47;4.67;;;2.90;;
7939;SDS011;4015;48.888;9.226;2024-03-25T03:40:12;5.13;;;3.17;;
7939;SDS011;4015;48.888;9.226;2024-03-25T03:42:38;6.17;;;3.97;;
7939;SDS011;4015;48.888;9.226;2024-03-25T03:45:03;6.13;;;3.40;;
7939;SDS011;4015;48.888;9.226;2024-03-25T03:47:29;5.03;;;3.40;;
7939;SDS011;4015;48.888;9.226;2024-03-25T03:49:54;5.60;;;3.17;;
7939;SDS011;4015;48.888;9.226;2024-03-25T03:52:19;4.87;;;3.40;;
7939;SDS011;4015;48.888;9.226;2024-03-25T03:54:45;9.03;;;3.53;;
7939;SDS011;4015;48.888;9.226;2024-03-25T03:57:10;4.77;;;3.00;;
7939;SDS011;4015;48.888;9.226;2024-03-25T03:59:35;6.07;;;3.47;;
7939;SDS011;4015;48.888;9.226;2024-03-25T04:02:01;6.37;;;3.30;;
7939;SDS011;4015;48.888;9.226;2024-03-25T04:04:26;4.27;;;3.33;;
7939;SDS011;4015;48.888;9.226;2024-03-25T04:06:51;10.77;;;3.50;;
7939;SDS011;4015;48.888;9.226;2024-03-25T04:09:16;5.07;;;3.10;;
7939;SDS011;4015;48.888;9.226;2024-03-25T04:11:43;5.37;;;3.47;;
7939;SDS011;4015;48.888;9.226;2024-03-25T04:14:08;8.67;;;4.33;;
7939;SDS011;4015;48.888;9.226;2024-03-25T04:16:33;5.23;;;3.20;;
7939;SDS011;4015;48.888;9.226;2024-03-25T04:18:58;5.27;;;3.37;;
7939;SDS011;4015;48.888;9.226;2024-03-25T04:21:24;4.87;;;3.10;;
7939;SDS011;4015;48.888;9.226;2024-03-25T04:23:49;7.10;;;2.93;;
7939;SDS011;4015;48.888;9.226;2024-03-25T04:26:15;8.13;;;3.93;;
7939;SDS011;4015;48.888;9.226;2024-03-25T04:28:40;6.30;;;3.50;;
7939;SDS011;4015;48.888;9.226;2024-03-25T04:31:07;5.27;;;3.20;;
7939;SDS011;4015;48.888;9.226;2024-03-25T04:33:33;5.60;;;3.10;;
7939;SDS011;4015;48.888;9.226;2024-03-25T04:35:58;5.53;;;3.27;;
7939;SDS011;4015;48.888;9.226;2024-03-25T04:38:24;9.63;;;3.53;;
7939;SDS011;4015;48.888;9.226;2024-03-25T04:40:49;4.87;;;3.67;;
7939;SDS011;4015;48.888;9.226;2024-03-25T04:43:15;4.63;;;3.10;;
7939;SDS011;4015;48.888;9.226;2024-03-25T04:45:40;5.87;;;3.30;;
7939;SDS011;4015;48.888;9.226;2024-03-25T04:48:06;6.60;;;3.30;;
7939;SDS011;4015;48.888;9.226;2024-03-25T04:50:32;4.87;;;3.17;;
7939;SDS011;4015;48.888;9.226;2024-03-25T04:52:58;7.17;;;3.83;;
7939;SDS011;4015;48.888;9.226;2024-03-25T04:55:23;7.97;;;3.47;;
7939;SDS011;4015;48.888;9.226;2024-03-25T04:57:49;6.37;;;3.07;;
7939;SDS011;4015;48.888;9.226;2024-03-25T05:00:14;8.03;;;3.57;;
7939;SDS011;4015;48.888;9.226;2024-03-25T05:02:39;6.50;;;3.43;;
7939;SDS011;4015;48.888;9.226;2024-03-25T05:05:05;3.80;;;3.37;;
7939;SDS011;4015;48.888;9.226;2024-03-25T05:07:32;5.07;;;3.50;;
7939;SDS011;4015;48.888;9.226;2024-03-25T05:09:57;8.63;;;4.13;;
7939;SDS011;4015;48.888;9.226;2024-03-25T05:12:23;9.17;;;4.20;;
7939;SDS011;4015;48.888;9.226;2024-03-25T05:14:48;6.50;;;3.47;;
7939;SDS011;4015;48.888;9.226;2024-03-25T05:17:13;8.03;;;3.70;;
7939;SDS011;4015;48.888;9.226;2024-03-25T05:19:38;4.53;;;3.10;;
7939;SDS011;4015;48.888;9.226;2024-03-25T05:22:04;4.97;;;3.30;;
7939;SDS011;4015;48.888;9.226;2024-03-25T05:24:29;6.23;;;3.50;;
7939;SDS011;4015;48.888;9.226;2024-03-25T05:26:54;4.33;;;3.30;;
7939;SDS011;4015;48.888;9.226;2024-03-25T05:29:20;4.97;;;3.77;;
7939;SDS011;4015;48.888;9.226;2024-03-25T05:31:55;4.07;;;3.63;;
7939;SDS011;4015;48.888;9.226;2024-03-25T05:34:24;5.13;;;3.73;;
7939;SDS011;4015;48.888;9.226;2024-03-25T05:36:50;4.27;;;3.40;;
7939;SDS011;4015;48.888;9.226;2024-03-25T05:39:16;7.93;;;3.67;;
7939;SDS011;4015;48.888;9.226;2024-03-25T05:41:41;9.43;;;3.97;;
7939;SDS011;4015;48.888;9.226;2024-03-25T05:44:06;6.30;;;4.33;;
7939;SDS011;4015;48.888;9.226;2024-03-25T05:46:32;10.60;;;4.20;;
7939;SDS011;4015;48.888;9.226;2024-03-25T05:48:57;16.57;;;4.87;;
7939;SDS011;4015;48.888;9.226;2024-03-25T05:51:25;8.43;;;3.93;;
7939;SDS011;4015;48.888;9.226;2024-03-25T05:53:51;8.20;;;4.23;;
7939;SDS011;4015;48.888;9.226;2024-03-25T05:56:16;4.57;;;3.77;;
7939;SDS011;4015;48.888;9.226;2024-03-25T05:58:41;6.03;;;3.67;;
7939;SDS011;4015;48.888;9.226;2024-03-25T06:01:07;4.10;;;3.13;;
7939;SDS011;4015;48.888;9.226;2024-03-25T06:03:32;6.83;;;3.77;;
7939;SDS011;4015;48.888;9.226;2024-03-25T06:05:57;9.60;;;4.07;;
7939;SDS011;4015;48.888;9.226;2024-03-25T06:08:22;11.57;;;4.27;;
7939;SDS011;4015;48.888;9.226;2024-03-25T06:10:51;7.97;;;4.00;;
7939;SDS011;4015;48.888;9.226;2024-03-25T06:13:17;9.60;;;4.40;;
7939;SDS011;4015;48.888;9.226;2024-03-25T06:15:43;9.60;;;4.63;;
7939;SDS011;4015;48.888;9.226;2024-03-25T06:18:08;6.50;;;4.30;;
7939;SDS011;4015;48.888;9.226;2024-03-25T06:20:33;7.63;;;4.13;;
7939;SDS011;4015;48.888;9.226;2024-03-25T06:22:59;6.87;;;4.30;;
7939;SDS011;4015;48.888;9.226;2024-03-25T06:25:24;5.13;;;4.20;;
7939;SDS011;4015;48.888;9.226;2024-03-25T06:27:50;6.93;;;4.33;;
7939;SDS011;4015;48.888;9.226;2024-03-25T06:30:15;9.03;;;3.80;;
7939;SDS011;4015;48.888;9.226;2024-03-25T06:32:59;6.53;;;3.73;;
7939;SDS011;4015;48.888;9.226;2024-03-25T06:35:43;4.47;;;2.67;;
7939;SDS011;4015;48.888;9.226;2024-03-25T06:38:09;4.80;;;2.97;;
7939;SDS011;4015;48.888;9.226;2024-03-25T06:40:35;4.37;;;2.77;;
7939;SDS011;4015;48.888;9.226;2024-03-25T06:43:01;5.77;;;2.87;;
7939;SDS011;4015;48.888;9.226;2024-03-25T06:45:26;5.10;;;2.57;;
7939;SDS011;4015;48.888;9.226;2024-03-25T06:47:51;5.20;;;2.70;;
7939;SDS011;4015;48.888;9.226;2024-03-25T06:50:17;6.50;;;2.60;;
7939;SDS011;4015;48.888;9.226;2024-03-25T06:52:42;7.87;;;3.33;;
7939;SDS011;4015;48.888;9.226;2024-03-25T06:55:07;5.83;;;3.23;;
7939;SDS011;4015;48.888;9.226;2024-03-25T06:57:33;6.97;;;3.00;;
7939;SDS011;4015;48.888;9.226;2024-03-25T06:59:58;7.40;;;3.07;;
7939;SDS011;4015;48.888;9.226;2024-03-25T07:02:24;7.00;;;3.00;;
7939;SDS011;4015;48.888;9.226;2024-03-25T07:04:49;4.67;;;2.60;;
7939;SDS011;4015;48.888;9.226;2024-03-25T07:07:15;6.07;;;2.33;;
7939;SDS011;4015;48.888;9.226;2024-03-25T07:09:40;5.73;;;2.73;;
7939;SDS011;4015;48.888;9.226;2024-03-25T07:12:06;6.17;;;3.20;;
7939;SDS011;4015;48.888;9.226;2024-03-25T07:14:32;4.40;;;2.60;;
7939;SDS011;4015;48.888;9.226;2024-03-25T07:16:57;8.00;;;2.80;;
7939;SDS011;4015;48.888;9.226;2024-03-25T07:19:22;4.97;;;2.60;;
7939;SDS011;4015;48.888;9.226;2024-03-25T07:21:48;4.20;;;2.60;;
7939;SDS011;4015;48.888;9.226;2024-03-25T07:24:13;6.87;;;2.77;;
7939;SDS011;4015;48.888;9.226;2024-03-25T07:26:39;6.18;;;2.88;;
7939;SDS011;4015;48.888;9.226;2024-03-25T07:29:04;4.77;;;2.80;;
7939;SDS011;4015;48.888;9.226;2024-03-25T07:31:30;6.10;;;3.05;;
7939;SDS011;4015;48.888;9.226;2024-03-25T07:33:55;7.53;;;3.20;;
7939;SDS011;4015;48.888;9.226;2024-03-25T07:36:20;7.10;;;2.73;;
7939;SDS011;4015;48.888;9.226;2024-03-25T07:38:46;5.15;;;2.47;;
7939;SDS011;4015;48.888;9.226;2024-03-25T07:41:11;5.50;;;2.67;;
7939;SDS011;4015;48.888;9.226;2024-03-25T07:43:37;6.72;;;2.53;;
7939;SDS011;4015;48.888;9.226;2024-03-25T07:46:02;7.20;;;2.92;;
7939;SDS011;4015;48.888;9.226;2024-03-25T07:48:28;6.32;;;2.78;;
7939;SDS011;4015;48.888;9.226;2024-03-25T07:50:53;5.68;;;2.63;;
7939;SDS011;4015;48.888;9.226;2024-03-25T07:53:19;3.35;;;2.63;;
7939;SDS011;4015;48.888;9.226;2024-03-25T07:55:44;7.82;;;2.85;;
7939;SDS011;4015;48.888;9.226;2024-03-25T07:58:09;5.38;;;2.35;;
7939;SDS011;4015;48.888;9.226;2024-03-25T08:00:35;5.50;;;2.63;;
7939;SDS011;4015;48.888;9.226;2024-03-25T08:03:00;4.37;;;2.73;;
7939;SDS011;4015;48.888;9.226;2024-03-25T08:05:26;7.83;;;2.27;;
7939;SDS011;4015;48.888;9.226;2024-03-25T08:07:51;5.00;;;2.20;;
7939;SDS011;4015;48.888;9.226;2024-03-25T08:10:17;3.93;;;2.23;;
7939;SDS011;4015;48.888;9.226;2024-03-25T08:12:42;4.27;;;2.33;;
7939;SDS011;4015;48.888;9.226;2024-03-25T08:15:08;8.17;;;2.90;;
7939;SDS011;4015;48.888;9.226;2024-03-25T08:17:33;4.47;;;2.03;;
7939;SDS011;4015;48.888;9.226;2024-03-25T08:19:58;4.00;;;2.57;;
7939;SDS011;4015;48.888;9.226;2024-03-25T08:22:24;4.00;;;2.27;;
7939;SDS011;4015;48.888;9.226;2024-03-25T08:24:49;4.37;;;2.17;;
7939;SDS011;4015;48.888;9.226;2024-03-25T08:27:14;3.73;;;1.90;;
7939;SDS011;4015;48.888;9.226;2024-03-25T08:29:40;4.90;;;2.38;;
7939;SDS011;4015;48.888;9.226;2024-03-25T08:32:06;5.03;;;1.67;;
7939;SDS011;4015;48.888;9.226;2024-03-25T08:34:31;3.30;;;2.03;;
7939;SDS011;4015;48.888;9.226;2024-03-25T08:36:56;2.45;;;1.70;;
7939;SDS011;4015;48.888;9.226;2024-03-25T08:39:22;4.97;;;2.20;;
7939;SDS011;4015;48.888;9.226;2024-03-25T08:41:47;3.53;;;2.03;;
7939;SDS011;4015;48.888;9.226;2024-03-25T08:44:12;6.63;;;2.38;;
7939;SDS011;4015;48.888;9.226;2024-03-25T08:46:38;5.10;;;2.22;;
7939;SDS011;4015;48.888;9.226;2024-03-25T08:49:04;4.00;;;2.00;;
7939;SDS011;4015;48.888;9.226;2024-03-25T08:51:29;3.47;;;1.67;;
7939;SDS011;4015;48.888;9.226;2024-03-25T08:53:55;5.18;;;1.80;;
7939;SDS011;4015;48.888;9.226;2024-03-25T08:56:20;4.93;;;2.20;;
7939;SDS011;4015;48.888;9.226;2024-03-25T08:58:46;4.87;;;2.10;;
7939;SDS011;4015;48.888;9.226;2024-03-25T09:01:11;2.60;;;1.50;;
7939;SDS011;4015;48.888;9.226;2024-03-25T09:03:39;3.97;;;1.75;;
7939;SDS011;4015;48.888;9.226;2024-03-25T09:06:05;4.82;;;1.83;;
7939;SDS011;4015;48.888;9.226;2024-03-25T09:08:32;2.88;;;1.60;;
7939;SDS011;4015;48.888;9.226;2024-03-25T09:11:17;4.40;;;2.00;;
7939;SDS011;4015;48.888;9.226;2024-03-25T09:13:42;2.83;;;1.52;;
7939;SDS011;4015;48.888;9.226;2024-03-25T09:16:08;3.88;;;1.80;;
7939;SDS011;4015;48.888;9.226;2024-03-25T09:18:33;2.85;;;1.80;;
7939;SDS011;4015;48.888;9.226;2024-03-25T09:20:58;5.30;;;2.08;;
7939;SDS011;4015;48.888;9.226;2024-03-25T09:23:24;6.90;;;2.17;;
7939;SDS011;4015;48.888;9.226;2024-03-25T09:25:55;4.82;;;1.60;;
7939;SDS011;4015;48.888;9.226;2024-03-25T09:28:21;3.40;;;1.77;;
7939;SDS011;4015;48.888;9.226;2024-03-25T09:30:47;4.63;;;1.55;;
7939;SDS011;4015;48.888;9.226;2024-03-25T09:33:14;4.47;;;1.80;;
7939;SDS011;4015;48.888;9.226;2024-03-25T09:35:39;4.65;;;1.73;;
7939;SDS011;4015;48.888;9.226;2024-03-25T09:38:05;3.13;;;1.42;;
7939;SDS011;4015;48.888;9.226;2024-03-25T09:40:31;4.22;;;2.03;;
7939;SDS011;4015;48.888;9.226;2024-03-25T09:42:57;2.92;;;1.27;;
7939;SDS011;4015;48.888;9.226;2024-03-25T09:45:25;3.30;;;1.77;;
7939;SDS011;4015;48.888;9.226;2024-03-25T09:47:52;3.78;;;1.75;;
7939;SDS011;4015;48.888;9.226;2024-03-25T09:50:20;3.03;;;1.83;;
7939;SDS011;4015;48.888;9.226;2024-03-25T09:52:46;3.40;;;1.60;;
7939;SDS011;4015;48.888;9.226;2024-03-25T09:55:12;5.75;;;1.45;;
7939;SDS011;4015;48.888;9.226;2024-03-25T09:57:37;3.65;;;1.75;;
7939;SDS011;4015;48.888;9.226;2024-03-25T10:00:04;5.82;;;1.98;;
7939;SDS011;4015;48.888;9.226;2024-03-25T10:02:32;3.83;;;1.77;;
7939;SDS011;4015;48.888;9.226;2024-03-25T10:04:59;6.60;;;1.70;;
7939;SDS011;4015;48.888;9.226;2024-03-25T10:07:24;4.90;;;1.58;;
7939;SDS011;4015;48.888;9.226;2024-03-25T10:09:53;3.45;;;1.40;;
7939;SDS011;4015;48.888;9.226;2024-03-25T10:12:18;5.18;;;1.60;;
7939;SDS011;4015;48.888;9.226;2024-03-25T10:14:45;3.75;;;1.67;;
7939;SDS011;4015;48.888;9.226;2024-03-25T10:17:10;4.30;;;1.50;;
7939;SDS011;4015;48.888;9.226;2024-03-25T10:19:36;4.47;;;1.50;;
7939;SDS011;4015;48.888;9.226;2024-03-25T10:22:05;3.78;;;1.73;;
7939;SDS011;4015;48.888;9.226;2024-03-25T10:24:41;3.38;;;1.42;;
7939;SDS011;4015;48.888;9.226;2024-03-25T10:27:11;3.95;;;1.77;;
7939;SDS011;4015;48.888;9.226;2024-03-25T10:29:51;4.40;;;1.75;;
7939;SDS011;4015;48.888;9.226;2024-03-25T10:32:19;4.80;;;1.80;;
7939;SDS011;4015;48.888;9.226;2024-03-25T10:34:45;4.10;;;1.83;;
7939;SDS011;4015;48.888;9.226;2024-03-25T10:37:11;5.63;;;1.27;;
7939;SDS011;4015;48.888;9.226;2024-03-25T10:39:39;2.22;;;1.35;;
7939;SDS011;4015;48.888;9.226;2024-03-25T10:42:14;2.13;;;1.30;;
7939;SDS011;4015;48.888;9.226;2024-03-25T10:44:43;2.40;;;1.50;;
7939;SDS011;4015;48.888;9.226;2024-03-25T10:47:09;2.80;;;1.00;;
7939;SDS011;4015;48.888;9.226;2024-03-25T10:50:00;5.13;;;1.42;;
7939;SDS011;4015;48.888;9.226;2024-03-25T10:52:27;2.67;;;1.50;;
7939;SDS011;4015;48.888;9.226;2024-03-25T10:54:54;5.68;;;1.95;;
7939;SDS011;4015;48.888;9.226;2024-03-25T10:57:21;2.75;;;1.17;;
7939;SDS011;4015;48.888;9.226;2024-03-25T10:59:47;5.00;;;1.48;;
7939;SDS011;4015;48.888;9.226;2024-03-25T11:02:14;2.55;;;1.48;;
7939;SDS011;4015;48.888;9.226;2024-03-25T11:04:42;4.53;;;1.77;;
7939;SDS011;4015;48.888;9.226;2024-03-25T11:07:10;4.95;;;1.70;;
7939;SDS011;4015;48.888;9.226;2024-03-25T11:09:37;2.90;;;1.50;;
7939;SDS011;4015;48.888;9.226;2024-03-25T11:12:03;2.38;;;1.40;;
7939;SDS011;4015;48.888;9.226;2024-03-25T11:14:29;3.70;;;1.50;;
7939;SDS011;4015;48.888;9.226;2024-03-25T11:16:57;3.85;;;2.08;;
7939;SDS011;4015;48.888;9.226;2024-03-25T11:19:26;4.43;;;1.65;;
7939;SDS011;4015;48.888;9.226;2024-03-25T11:22:05;4.07;;;1.80;;
7939;SDS011;4015;48.888;9.226;2024-03-25T11:24:32;4.63;;;1.92;;
7939;SDS011;4015;48.888;9.226;2024-03-25T11:27:00;3.67;;;1.50;;
7939;SDS011;4015;48.888;9.226;2024-03-25T11:29:25;2.45;;;1.50;;
7939;SDS011;4015;48.888;9.226;2024-03-25T11:31:52;2.85;;;1.25;;
7939;SDS011;4015;48.888;9.226;2024-03-25T11:34:18;2.00;;;1.55;;
7939;SDS011;4015;48.888;9.226;2024-03-25T11:36:43;4.72;;;1.73;;
7939;SDS011;4015;48.888;9.226;2024-03-25T11:39:08;2.45;;;1.50;;
7939;SDS011;4015;48.888;9.226;2024-03-25T11:41:35;2.67;;;1.50;;
7939;SDS011;4015;48.888;9.226;2024-03-25T11:44:04;2.22;;;1.25;;
7939;SDS011;4015;48.888;9.226;2024-03-25T11:46:30;4.47;;;1.73;;
7939;SDS011;4015;48.888;9.226;2024-03-25T11:48:56;3.20;;;1.58;;
7939;SDS011;4015;48.888;9.226;2024-03-25T11:51:21;2.63;;;1.65;;
7939;SDS011;4015;48.888;9.226;2024-03-25T11:53:47;3.03;;;1.40;;
7939;SDS011;4015;48.888;9.226;2024-03-25T11:56:12;2.17;;;1.35;;
7939;SDS011;4015;48.888;9.226;2024-03-25T11:58:38;4.05;;;1.52;;
7939;SDS011;4015;48.888;9.226;2024-03-25T12:01:04;2.78;;;1.55;;
7939;SDS011;4015;48.888;9.226;2024-03-25T12:03:30;2.97;;;1.80;;
7939;SDS011;4015;48.888;9.226;2024-03-25T12:05:56;3.10;;;1.40;;
7939;SDS011;4015;48.888;9.226;2024-03-25T12:08:24;5.63;;;1.60;;
7939;SDS011;4015;48.888;9.226;2024-03-25T12:10:51;3.83;;;1.90;;
7939;SDS011;4015;48.888;9.226;2024-03-25T12:13:37;2.47;;;1.40;;
7939;SDS011;4015;48.888;9.226;2024-03-25T12:16:07;2.35;;;1.45;;
7939;SDS011;4015;48.888;9.226;2024-03-25T12:18:34;2.15;;;1.45;;
7939;SDS011;4015;48.888;9.226;2024-03-25T12:21:01;2.28;;;1.38;;
7939;SDS011;4015;48.888;9.226;2024-03-25T12:23:30;3.25;;;1.42;;
7939;SDS011;4015;48.888;9.226;2024-03-25T12:25:58;6.93;;;1.73;;
7939;SDS011;4015;48.888;9.226;2024-03-25T12:28:25;3.17;;;2.17;;
7939;SDS011;4015;48.888;9.226;2024-03-25T12:30:51;2.33;;;1.60;;
7939;SDS011;4015;48.888;9.226;2024-03-25T12:33:18;3.08;;;1.60;;
7939;SDS011;4015;48.888;9.226;2024-03-25T12:35:46;2.83;;;1.70;;
7939;SDS011;4015;48.888;9.226;2024-03-25T12:38:26;5.55;;;1.77;;
7939;SDS011;4015;48.888;9.226;2024-03-25T12:41:05;5.50;;;1.83;;
7939;SDS011;4015;48.888;9.226;2024-03-25T12:43:32;1.40;;;1.30;;
7939;SDS011;4015;48.888;9.226;2024-03-25T12:45:58;6.68;;;1.75;;
7939;SDS011;4015;48.888;9.226;2024-03-25T12:48:25;4.53;;;1.92;;
7939;SDS011;4015;48.888;9.226;2024-03-25T12:50:50;2.60;;;1.95;;
7939;SDS011;4015;48.888;9.226;2024-03-25T12:53:17;3.13;;;1.35;;
7939;SDS011;4015;48.888;9.226;2024-03-25T12:55:44;1.77;;;1.50;;
7939;SDS011;4015;48.888;9.226;2024-03-25T12:58:12;3.25;;;1.92;;
7939;SDS011;4015;48.888;9.226;2024-03-25T13:00:37;3.70;;;1.70;;
7939;SDS011;4015;48.888;9.226;2024-03-25T13:03:03;2.15;;;1.33;;
7939;SDS011;4015;48.888;9.226;2024-03-25T13:05:29;2.17;;;1.50;;
7939;SDS011;4015;48.888;9.226;2024-03-25T13:07:55;2.50;;;1.67;;
7939;SDS011;4015;48.888;9.226;2024-03-25T13:10:21;5.15;;;1.90;;
7939;SDS011;4015;48.888;9.226;2024-03-25T13:12:46;3.03;;;1.75;;
7939;SDS011;4015;48.888;9.226;2024-03-25T13:15:12;3.05;;;1.60;;
7939;SDS011;4015;48.888;9.226;2024-03-25T13:17:38;4.68;;;1.60;;
7939;SDS011;4015;48.888;9.226;2024-03-25T13:20:03;4.20;;;1.70;;
7939;SDS011;4015;48.888;9.226;2024-03-25T13:22:29;2.25;;;1.38;;
7939;SDS011;4015;48.888;9.226;2024-03-25T13:24:56;2.80;;;1.65;;
7939;SDS011;4015;48.888;9.226;2024-03-25T13:27:22;3.15;;;1.55;;
7939;SDS011;4015;48.888;9.226;2024-03-25T13:29:47;2.33;;;1.40;;
7939;SDS011;4015;48.888;9.226;2024-03-25T13:32:12;2.95;;;1.40;;
7939;SDS011;4015;48.888;9.226;2024-03-25T13:34:38;3.03;;;1.58;;
7939;SDS011;4015;48.888;9.226;2024-03-25T13:37:03;2.15;;;1.48;;
7939;SDS011;4015;48.888;9.226;2024-03-25T13:39:29;5.30;;;1.60;;
7939;SDS011;4015;48.888;9.226;2024-03-25T13:41:54;1.92;;;1.40;;
7939;SDS011;4015;48.888;9.226;2024-03-25T13:44:20;2.78;;;1.50;;
7939;SDS011;4015;48.888;9.226;2024-03-25T13:46:45;5.90;;;1.75;;
7939;SDS011;4015;48.888;9.226;2024-03-25T13:49:10;2.83;;;1.50;;
7939;SDS011;4015;48.888;9.226;2024-03-25T13:51:36;6.47;;;1.77;;
7939;SDS011;4015;48.888;9.226;2024-03-25T13:54:01;4.07;;;1.55;;
7939;SDS011;4015;48.888;9.226;2024-03-25T13:56:27;3.25;;;1.55;;
7939;SDS011;4015;48.888;9.226;2024-03-25T13:58:53;3.20;;;1.05;;
7939;SDS011;4015;48.888;9.226;2024-03-25T14:01:18;2.25;;;1.33;;
7939;SDS011;4015;48.888;9.226;2024-03-25T14:03:43;2.80;;;1.30;;
7939;SDS011;4015;48.888;9.226;2024-03-25T14:06:09;3.90;;;1.30;;
7939;SDS011;4015;48.888;9.226;2024-03-25T14:08:34;5.60;;;1.67;;
7939;SDS011;4015;48.888;9.226;2024-03-25T14:11:01;4.43;;;1.40;;
7939;SDS011;4015;48.888;9.226;2024-03-25T14:13:28;1.10;;;0.95;;
7939;SDS011;4015;48.888;9.226;2024-03-25T14:15:54;4.20;;;1.50;;
7939;SDS011;4015;48.888;9.226;2024-03-25T14:18:19;3.50;;;1.65;;
7939;SDS011;4015;48.888;9.226;2024-03-25T14:20:45;2.80;;;1.35;;
7939;SDS011;4015;48.888;9.226;2024-03-25T14:23:11;3.67;;;1.58;;
7939;SDS011;4015;48.888;9.226;2024-03-25T14:25:37;2.08;;;1.38;;
7939;SDS011;4015;48.888;9.226;2024-03-25T14:28:03;4.63;;;1.60;;
7939;SDS011;4015;48.888;9.226;2024-03-25T14:30:28;2.92;;;1.40;;
7939;SDS011;4015;48.888;9.226;2024-03-25T14:32:53;2.42;;;1.30;;
7939;SDS011;4015;48.888;9.226;2024-03-25T14:35:20;1.73;;;1.05;;
7939;SDS011;4015;48.888;9.226;2024-03-25T14:37:46;3.58;;;1.50;;
7939;SDS011;4015;48.888;9.226;2024-03-25T14:40:11;2.47;;;1.30;;
7939;SDS011;4015;48.888;9.226;2024-03-25T14:42:38;1.80;;;1.30;;
7939;SDS011;4015;48.888;9.226;2024-03-25T14:45:03;1.25;;;1.10;;
7939;SDS011;4015;48.888;9.226;2024-03-25T14:47:30;2.78;;;1.30;;
7939;SDS011;4015;48.888;9.226;2024-03-25T14:49:56;4.50;;;1.52;;
7939;SDS011;4015;48.888;9.226;2024-03-25T14:52:22;1.88;;;1.20;;
7939;SDS011;4015;48.888;9.226;2024-03-25T14:54:48;4.03;;;1.55;;
7939;SDS011;4015;48.888;9.226;2024-03-25T14:57:13;1.33;;;1.10;;
7939;SDS011;4015;48.888;9.226;2024-03-25T14:59:38;4.20;;;1.40;;
7939;SDS011;4015;48.888;9.226;2024-03-25T15:02:04;2.40;;;1.50;;
7939;SDS011;4015;48.888;9.226;2024-03-25T15:04:29;2.63;;;1.30;;
7939;SDS011;4015;48.888;9.226;2024-03-25T15:06:56;1.70;;;1.17;;
7939;SDS011;4015;48.888;9.226;2024-03-25T15:09:22;2.58;;;1.35;;